Oceanex Avalon — VOKJ — position and weather

sailwx.info

Track history (hours):
 
Tides and Currents Weather Stations Pressure Air Temp Water Temp Dewpoint Dewpoint Depression Visibility Wind Speed Wind Dir Waves Ship Positions

Oceanex Avalon

Last reported at 2017-Dec-18 11:00 UTC. Time now 2017-Dec-18 13:05 UTC.
Position N 49°06' W 064°36'.

Length 149 m; draft 7.8 m.

Type: Cargo ship. MMSI: 316006074.

Wind from 270 at 19 knots

Barometer 1016.5 mb
Air temperature -10.0 ° C
Dewpoint -13.6 ° C

Date/timePositionNaut miles runAvg speedWind from/ knotsBaromVisibWave heightAir tempDewpointWater temp
2017-Dec-18 11:00N 49°06' W 064°36'27 8.9 270 / 191016.5 -10.0-13.6
2017-Dec-18 08:00N 48°48' W 064°06'1414.4 270 / 141017.3 -10.1-14.8
2017-Dec-18 07:00N 48°36' W 063°54'6 6.0 270 / 141017.3 -10.0-14.6
2017-Dec-18 06:00N 48°30' W 063°54'1010.0 290 / 131016.5 -9.7-14.9
2017-Dec-18 05:00N 48°24' W 063°42'3210.8 280 / 141016.1 -9.3-14.4
2017-Dec-18 02:00N 47°54' W 063°24'7 7.2 290 / 171015.2 -7.8-13.0
2017-Dec-18 01:00N 47°48' W 063°18'7 7.2 290 / 171014.6 -7.4-12.8
2017-Dec-18 00:00N 47°42' W 063°12'1312.7 300 / 161014.3 -7.5-12.9
2017-Dec-17 23:00N 47°30' W 063°06'7 7.2 290 / 181013.2 -6.4-11.0
2017-Dec-17 22:00N 47°24' W 063°00'1312.7 280 / 201013.2 -6.8-11.1
2017-Dec-17 21:00N 47°12' W 062°54'8 8.2 280 / 211012.7 -6.8-10.7
2017-Dec-17 20:00N 47°12' W 062°42'1616.3 280 / 271011.2 -6.4-10.7
2017-Dec-17 19:00N 47°12' W 062°18'1616.3 280 / 211010.1 -5.9-10.2
2017-Dec-17 18:00N 47°12' W 061°54'5317.8 290 / 211008.9 -5.6-9.0
2017-Dec-17 15:00N 47°18' W 060°36'4715.7 280 / 311005.1 -3.3-6.4
2017-Dec-17 12:00N 47°42' W 059°36'4515.0 280 / 301001.1 -4.2-8.4
2017-Dec-17 09:00N 47°36' W 058°30'1616.2 270 / 24997.8 -5.7-9.6
2017-Dec-17 08:00N 47°36' W 058°06'1717.3 270 / 33996.3 -5.0-10.1
2017-Dec-17 07:00N 47°30' W 057°42'1717.3 270 / 34995.2 -4.0-9.9
2017-Dec-17 06:00N 47°36' W 057°18'1717.3 270 / 28994.9 -4.3-10.7
2017-Dec-17 05:00N 47°30' W 056°54'3015.2 270 / 28994.5 -4.4-11.9
2017-Dec-17 03:00N 47°12' W 056°18'2019.8 270 / 19993.5 -2.2-7.7
2017-Dec-17 02:00N 46°54' W 056°06'2914.7 280 / 23993.0 -1.5-6.5
2017-Dec-17 00:00N 46°48' W 055°24'8016.1 280 / 27989.9 -2.7-4.4
2017-Dec-16 19:00N 46°30' W 053°30'5317.8 050 / 46971.8 1.6 1.3
2017-Dec-16 16:00N 47°12' W 052°42'1818.5 040 / 20997.0 -0.0-0.4
2017-Dec-16 15:00N 47°30' W 052°36'314.8 050 / 141002.2 0.9-1.6
2017-Dec-16 14:46N 47°33' W 052°38'3 8.6
2017-Dec-16 14:25N 47°34' W 052°42'2 5.7
2017-Dec-16 14:00N 47°36' W 052°42'3 6.5 060 / 21004.3 0.4-4.0
2017-Dec-16 13:36N 47°33' W 052°43'3 4.2
2017-Dec-16 13:00N 47°36' W 052°42'0 0.0 1006.9 -0.5-4.8
2017-Dec-16 12:00N 47°36' W 052°42'3 2.6 030 / 11009.5 -1.1-5.3
2017-Dec-16 11:00N 47°33' W 052°43'3158.4
2017-Dec-16 11:00N 47°36' W 052°42'3 5.3 230 / 41011.2 -1.6-5.7
2017-Dec-16 10:30N 47°33' W 052°43'0 0.0
2017-Dec-16 10:00N 47°33' W 052°43'3155.7
2017-Dec-16 10:00N 47°36' W 052°42'3 5.3 240 / 51010.8 -1.0-6.2
2017-Dec-16 09:30N 47°33' W 052°43'3 4.9
2017-Dec-16 09:00N 47°36' W 052°42'330.3 210 / 21009.6 -0.9-6.1
2017-Dec-16 08:54N 47°33' W 052°43'0 0.0
2017-Dec-16 08:30N 47°33' W 052°43'0 0.0
2017-Dec-16 07:54N 47°33' W 052°43'0 0.0
2017-Dec-16 07:24N 47°33' W 052°43'3 6.1
2017-Dec-16 07:00N 47°36' W 052°42'330.4 230 / 61011.1 0.1-6.5
2017-Dec-16 06:54N 47°33' W 052°43'0 0.0
2017-Dec-16 06:24N 47°33' W 052°43'0 0.0
2017-Dec-16 06:00N 47°33' W 052°43'3155.7
2017-Dec-16 06:00N 47°36' W 052°42'3 5.3 240 / 91011.5 -0.1-7.1
2017-Dec-16 05:30N 47°33' W 052°43'0 0.0
2017-Dec-16 05:00N 47°33' W 052°43'3155.7
2017-Dec-16 05:00N 47°36' W 052°42'3 4.8 240 / 111011.2 0.1-7.2
2017-Dec-16 04:27N 47°33' W 052°43'0 0.0
2017-Dec-16 04:00N 47°33' W 052°43'3158.4
2017-Dec-16 04:00N 47°36' W 052°42'3 5.3 240 / 121010.7 0.3-7.3
2017-Dec-16 03:30N 47°33' W 052°43'3 4.9
2017-Dec-16 03:00N 47°36' W 052°42'374.7 240 / 131010.6 0.3-7.3
2017-Dec-16 02:57N 47°33' W 052°43'0 0.0
2017-Dec-16 02:24N 47°33' W 052°43'0 0.0
2017-Dec-16 02:00N 47°33' W 052°43'3155.7
2017-Dec-16 02:00N 47°36' W 052°42'3 5.3 240 / 141010.4 0.4-7.0
2017-Dec-16 01:30N 47°33' W 052°43'0 0.0
2017-Dec-16 01:00N 47°33' W 052°43'0 0.0
2017-Dec-16 00:24N 47°33' W 052°43'3 6.1
2017-Dec-16 00:00N 47°36' W 052°42'277.4 220 / 131008.8 1.1-7.0
2017-Dec-15 23:58N 47°34' W 052°41'1013.6
2017-Dec-15 23:15N 47°25' W 052°38'727.9
2017-Dec-15 23:00N 47°18' W 052°42'1818.5 220 / 211009.1 2.8-5.2
2017-Dec-15 22:00N 47°00' W 052°48'3919.4 230 / 211009.4 2.2-4.0
2017-Dec-15 20:00N 46°30' W 053°24'1716.5 260 / 331009.9 2.6-5.2
2017-Dec-15 19:00N 46°30' W 053°48'5819.4 260 / 341009.0 2.4-5.2
2017-Dec-15 16:00N 46°24' W 055°12'1817.6 250 / 361007.5 1.4-5.6
2017-Dec-15 15:00N 46°18' W 055°36'2120.7 250 / 371007.4 1.0-5.8
2017-Dec-15 14:00N 46°18' W 056°06'1817.6 250 / 381007.0 -0.2-6.9
2017-Dec-15 13:00N 46°24' W 056°30'3818.8 240 / 341005.4 -1.0-6.9
2017-Dec-15 11:00N 46°42' W 057°18'3718.7 230 / 321002.0 -2.1-8.2
2017-Dec-15 09:00N 47°00' W 058°06'2020.3 240 / 28999.9 -3.6-9.0
2017-Dec-15 08:00N 47°12' W 058°30'1717.4 250 / 27998.7 -3.7-9.0
2017-Dec-15 07:00N 47°18' W 058°54'2423.6 250 / 33997.7 -4.4-9.2
2017-Dec-15 06:00N 47°30' W 059°24'1717.1 250 / 27996.9 -4.9-9.7
2017-Dec-15 05:00N 47°42' W 059°42'1414.5 250 / 28995.2 -5.4-10.1
2017-Dec-15 04:00N 47°54' W 059°54'2424.1 240 / 29994.1 -5.5-9.2
2017-Dec-15 03:00N 48°12' W 060°18'1414.4 230 / 25993.4 -5.1-9.1
2017-Dec-15 02:00N 48°24' W 060°30'3416.9 230 / 23992.7 -5.2-8.4
2017-Dec-15 00:00N 48°48' W 061°06'5518.3 230 / 26991.7 -6.1-10.1
2017-Dec-14 21:00N 49°30' W 062°00'26 8.7 220 / 20989.7 -9.3-12.0
2017-Dec-14 18:00N 49°42' W 062°36'1313.1 220 / 21987.6 -9.5-14.3
2017-Dec-14 17:00N 49°48' W 062°54'28 9.2 220 / 21986.3 -9.3-14.8
2017-Dec-14 14:00N 49°54' W 063°36'8 7.7 240 / 31981.6 -8.4-13.5
2017-Dec-14 13:00N 49°54' W 063°48'2010.1 220 / 31 -8.6-12.2
2017-Dec-14 11:00N 50°00' W 064°18'10 9.8 240 / 40975.7 -6.9-10.7
2017-Dec-14 10:00N 49°54' W 064°30'3210.5 250 / 39975.8 -6.6-9.9
2017-Dec-14 07:00N 49°48' W 065°18'3919.7 240 / 42973.5 -4.7-9.4
2017-Dec-14 05:00N 49°30' W 066°12'3718.6 240 / 37971.9 -5.0-9.1
2017-Dec-14 03:00N 49°18' W 067°06'3416.8 250 / 28972.4 -6.0-8.8
2017-Dec-14 01:00N 49°06' W 067°54'2323.1 270 / 17974.4 -5.7-7.2
2017-Dec-14 00:00N 48°54' W 068°24'3014.9 300 / 21975.4 -5.7-7.0
2017-Dec-13 22:00N 48°36' W 069°00'1716.9 300 / 19977.6 -4.9-6.4
2017-Dec-13 21:00N 48°24' W 069°18'3417.0 270 / 17978.2 -5.7-7.5
2017-Dec-13 19:00N 47°54' W 069°42'2412.1 290 / 17978.7 -4.1-7.3
2017-Dec-13 17:00N 47°36' W 070°06'2412.1 210 / 23981.8 -4.4-5.7
2017-Dec-13 15:00N 47°18' W 070°30'2221.8 210 / 22984.3 -4.8-6.2
2017-Dec-13 14:00N 47°00' W 070°48'4514.9 220 / 17986.4 -6.6-8.7
2017-Dec-13 11:00N 46°42' W 071°48'2020.4 260 / 10989.6 -8.0-9.9
2017-Dec-13 10:00N 46°30' W 072°12'4113.6 280 / 12990.8 -8.8-10.9
2017-Dec-13 07:00N 46°06' W 073°00'2512.3 280 / 9993.8 -8.5-10.6
2017-Dec-13 05:00N 45°48' W 073°24'18 6.2 260 / 10995.5 -7.2-8.9
2017-Dec-13 02:00N 45°30' W 073°30'0 0.0 320 / 5997.0 -6.9-9.2
2017-Dec-13 01:00N 45°30' W 073°30'0 0.0 320 / 3996.9 -7.4-9.4
2017-Dec-12 23:00N 45°30' W 073°30'0 0.0 010 / 12996.9 -7.5-9.3
2017-Dec-12 21:00N 45°30' W 073°30'0 0.0 020 / 14997.5 -7.6-9.1
2017-Dec-12 20:00N 45°30' W 073°30'0 0.0 020 / 16997.8 -7.7-9.2
2017-Dec-12 19:00N 45°30' W 073°30'0 0.0 020 / 15998.3 -7.9-9.4
2017-Dec-12 17:00N 45°30' W 073°30'0 0.0 020 / 151000.9 -9.0-10.6
2017-Dec-12 16:00N 45°30' W 073°30'0 0.0 020 / 151002.6 -9.4-11.0
2017-Dec-12 13:00N 45°30' W 073°30'0 0.0 020 / 141005.6 -11.0-12.9
2017-Dec-12 12:00N 45°30' W 073°30'0 0.0 020 / 131007.0 -11.3-13.2
2017-Dec-12 11:00N 45°30' W 073°30'0 0.0 020 / 111008.1 -11.4-13.5
2017-Dec-12 10:00N 45°30' W 073°30'0 0.0 020 / 101009.0 -11.2-13.7
2017-Dec-12 08:00N 45°30' W 073°30'0 0.0 030 / 81012.5 -10.5-15.6
2017-Dec-12 07:00N 45°30' W 073°30'0 0.0 020 / 81013.5 -10.3-15.9
2017-Dec-12 05:00N 45°30' W 073°30'0 0.0 050 / 51015.5 -9.0-15.3
2017-Dec-12 04:00N 45°30' W 073°30'0 0.0 110 / 21016.1 -9.8-15.1
2017-Dec-12 03:00N 45°30' W 073°30'0 0.0 100 / 31016.3 -10.0-15.1
2017-Dec-12 02:00N 45°30' W 073°30'0 0.0 110 / 31016.6 -10.4-15.0
2017-Dec-12 00:00N 45°30' W 073°30'6 3.0 070 / 31017.4 -7.5-14.4
2017-Dec-11 22:00N 45°36' W 073°30'20 9.9 090 / 51017.9 -9.5-15.3
2017-Dec-11 20:00N 45°54' W 073°18'7 7.3 190 / 41017.8 -10.0-19.1
2017-Dec-11 19:00N 46°00' W 073°12'1413.9 230 / 61017.5 -10.4-20.8
2017-Dec-11 18:00N 46°06' W 072°54'1514.6 200 / 41017.5 -11.5-19.8
2017-Dec-11 17:00N 46°18' W 072°42'1010.2 250 / 31017.6 -11.8-20.0
2017-Dec-11 16:00N 46°24' W 072°30'1413.8 270 / 61017.6 -12.7-19.8
2017-Dec-11 15:00N 46°30' W 072°12'2110.7 270 / 91016.6 -13.5-19.4
2017-Dec-11 13:00N 46°36' W 071°42'1413.7 220 / 71014.9 -12.7-15.6
2017-Dec-11 12:00N 46°42' W 071°24'2713.7 250 / 91014.1 -11.0-15.4
2017-Dec-11 10:00N 46°54' W 070°48'2019.8 060 / 121013.0 -9.3-11.0
2017-Dec-11 09:00N 47°12' W 070°36'1414.5 050 / 111012.9 -10.2-12.7
2017-Dec-11 08:00N 47°24' W 070°24'1717.1 320 / 181012.1 -11.7-18.1
2017-Dec-11 07:00N 47°36' W 070°06'3115.7 310 / 171011.9 -12.3-19.5
2017-Dec-11 05:00N 48°00' W 069°36'2019.7 280 / 241010.3 -12.4-18.4
2017-Dec-11 04:00N 48°18' W 069°24'1716.9 280 / 231008.3 -12.0-17.8
2017-Dec-11 03:00N 48°30' W 069°06'2019.9 260 / 171007.2 -9.1-16.0
2017-Dec-11 02:00N 48°42' W 068°42'1716.9 280 / 201004.9 -7.7-14.5
2017-Dec-11 01:00N 48°48' W 068°18'2019.8 270 / 201003.9 -6.7-12.7
2017-Dec-11 00:00N 49°00' W 067°54'2323.0 280 / 161002.5 -6.9-10.2
2017-Dec-10 23:00N 49°12' W 067°24'3617.9 270 / 201001.0 -5.6-8.3
2017-Dec-10 21:00N 49°18' W 066°30'1716.7 230 / 22999.0 -4.5-7.2
2017-Dec-10 20:00N 49°24' W 066°06'2019.5 250 / 26998.0 -4.4-9.1
2017-Dec-10 19:00N 49°24' W 065°36'2713.7 270 / 30996.2 -4.4-8.7
2017-Dec-10 17:00N 49°24' W 064°54'1211.7 290 / 26995.1 -3.8-5.4
2017-Dec-10 16:00N 49°24' W 064°36'8 7.8 300 / 28995.0 -3.3-4.2
2017-Dec-10 15:00N 49°24' W 064°24'1211.7 300 / 25995.1 -2.3-2.8
2017-Dec-10 14:00N 49°24' W 064°06'10 9.9 320 / 22995.1 -1.5-1.9
2017-Dec-10 13:00N 49°18' W 063°54'20 9.9 330 / 23995.6 -1.3-1.6
2017-Dec-10 11:00N 49°06' W 063°30'10 9.9 010 / 20998.5 -1.4-1.6
2017-Dec-10 10:00N 49°00' W 063°18'2110.3 020 / 211000.2 -1.4-1.5
2017-Dec-10 08:00N 48°54' W 062°48'10 9.9 040 / 191001.8 -1.1-1.2
2017-Dec-10 07:00N 48°48' W 062°36'10 9.9 050 / 181005.0 -0.5-0.6
2017-Dec-10 06:00N 48°42' W 062°24'10 9.9 060 / 171007.2 -0.6-0.7
2017-Dec-10 05:00N 48°36' W 062°12'1313.3 060 / 141009.4 -0.7-0.8
2017-Dec-10 04:00N 48°30' W 061°54'1313.4 080 / 81011.1 -0.6-0.7
2017-Dec-10 03:00N 48°24' W 061°36'2020.0 120 / 121011.9 0.5-0.6
2017-Dec-10 02:00N 48°12' W 061°12'1717.1 130 / 161014.4 2.7-0.7
2017-Dec-10 01:00N 48°06' W 060°48'2020.0 140 / 161015.8 2.6-1.6
2017-Dec-10 00:00N 47°54' W 060°24'6120.2 130 / 161017.1 2.7-2.0
2017-Dec-09 21:00N 47°24' W 059°06'2121.2 120 / 121019.4 2.4-2.9
2017-Dec-09 20:00N 47°18' W 058°36'1717.4 120 / 81019.5 2.3-3.4
2017-Dec-09 19:00N 47°12' W 058°12'2121.3 090 / 31019.0 2.3-3.1
2017-Dec-09 18:00N 47°06' W 057°42'2020.3 360 / 31018.9 2.7-2.5
2017-Dec-09 17:00N 46°54' W 057°18'3919.4 290 / 51018.3 3.2-4.0
2017-Dec-09 15:00N 46°42' W 056°24'2120.6 220 / 41018.9 4.0 0.1
2017-Dec-09 14:00N 46°42' W 055°54'1817.5 190 / 111019.2 3.8 1.8
2017-Dec-09 13:00N 46°36' W 055°30'1616.5 180 / 101019.3 3.0 1.3
2017-Dec-09 12:00N 46°36' W 055°06'2120.6 190 / 81019.1 3.2 0.6
2017-Dec-09 11:00N 46°36' W 054°36'1616.5 200 / 101017.7 3.8 1.3
2017-Dec-09 10:00N 46°36' W 054°12'2121.5 190 / 121018.0 5.0 1.3
2017-Dec-09 09:00N 46°30' W 053°42'3517.5 170 / 91018.9 4.5 0.7
2017-Dec-09 07:00N 46°42' W 052°54'1818.5 190 / 101018.9 2.9-0.8
2017-Dec-09 06:00N 47°00' W 052°48'1919.4 200 / 111018.5 2.3-1.8
2017-Dec-09 05:01N 47°18' W 052°40'318.7
2017-Dec-09 04:51N 47°21' W 052°39'618.5
2017-Dec-09 04:30N 47°28' W 052°37'713.6
2017-Dec-09 03:58N 47°34' W 052°41'1 1.7
2017-Dec-09 03:26N 47°33' W 052°43'3 5.8
2017-Dec-09 03:00N 47°36' W 052°42'341.2 220 / 61017.0 1.3-2.5
2017-Dec-09 02:56N 47°33' W 052°43'0 0.0
2017-Dec-09 02:26N 47°33' W 052°43'3 5.8
2017-Dec-09 02:00N 47°36' W 052°42'341.4 220 / 71016.0 1.3-3.1
2017-Dec-09 01:56N 47°33' W 052°43'0 0.0
2017-Dec-09 01:26N 47°33' W 052°43'3 5.8
2017-Dec-09 01:00N 47°36' W 052°42'341.4 220 / 61015.2 1.2-2.2
2017-Dec-09 00:56N 47°33' W 052°43'0 0.0
2017-Dec-09 00:26N 47°33' W 052°43'3 5.8
2017-Dec-09 00:00N 47°36' W 052°42'341.2 230 / 81014.6 1.1-3.2
2017-Dec-08 23:56N 47°33' W 052°43'0 0.0
2017-Dec-08 23:26N 47°33' W 052°43'3 5.8
2017-Dec-08 23:00N 47°36' W 052°42'341.4 230 / 121013.5 1.1-2.4
2017-Dec-08 22:56N 47°33' W 052°43'0 0.0
2017-Dec-08 22:26N 47°33' W 052°43'3 5.8
2017-Dec-08 22:00N 47°36' W 052°42'3213.7 230 / 91012.9 1.3-2.4
2017-Dec-08 21:59N 47°33' W 052°43'0 0.0
2017-Dec-08 21:26N 47°33' W 052°43'3 5.8
2017-Dec-08 21:00N 47°36' W 052°42'341.2 220 / 81011.8 1.2-1.2
2017-Dec-08 20:56N 47°33' W 052°43'0 0.0
2017-Dec-08 20:26N 47°33' W 052°43'0 0.0
2017-Dec-08 19:50N 47°33' W 052°43'3 3.0
2017-Dec-08 19:00N 47°36' W 052°42'0 0.0 230 / 81010.6 1.4 0.1
2017-Dec-08 18:00N 47°36' W 052°42'3 0.8 220 / 91010.0 1.2 0.2
2017-Dec-08 14:48N 47°33' W 052°43'0 0.7
2017-Dec-08 14:25N 47°34' W 052°42'511.2
2017-Dec-08 14:00N 47°36' W 052°36'3718.5 190 / 111010.4 2.6-0.6
2017-Dec-08 12:00N 47°00' W 052°48'1312.7 230 / 121010.9 1.6-1.9
2017-Dec-08 11:00N 46°48' W 052°54'   240 / 121010.8 2.2-1.7
Track history (hours):
 
Tides and Currents Weather Stations Pressure Air Temp Water Temp Dewpoint Dewpoint Depression Visibility Wind Speed Wind Dir Waves Ship Positions

Oceanex Avalon

Last reported at 2017-Dec-18 11:00 UTC. Time now 2017-Dec-18 13:05 UTC.
Position N 49°06' W 064°36'.

Length 149 m; draft 7.8 m.

Type: Cargo ship. MMSI: 316006074.

Wind from 270 at 19 knots

Barometer 1016.5 mb
Air temperature -10.0 ° C
Dewpoint -13.6 ° C

Date/timePositionNaut miles runAvg speedWind from/ knotsBaromVisibWave heightAir tempDewpointWater temp
2017-Dec-18 11:00N 49°06' W 064°36'27 8.9 270 / 191016.5 -10.0-13.6
2017-Dec-18 08:00N 48°48' W 064°06'1414.4 270 / 141017.3 -10.1-14.8
2017-Dec-18 07:00N 48°36' W 063°54'6 6.0 270 / 141017.3 -10.0-14.6
2017-Dec-18 06:00N 48°30' W 063°54'1010.0 290 / 131016.5 -9.7-14.9
2017-Dec-18 05:00N 48°24' W 063°42'3210.8 280 / 141016.1 -9.3-14.4
2017-Dec-18 02:00N 47°54' W 063°24'7 7.2 290 / 171015.2 -7.8-13.0
2017-Dec-18 01:00N 47°48' W 063°18'7 7.2 290 / 171014.6 -7.4-12.8
2017-Dec-18 00:00N 47°42' W 063°12'1312.7 300 / 161014.3 -7.5-12.9
2017-Dec-17 23:00N 47°30' W 063°06'7 7.2 290 / 181013.2 -6.4-11.0
2017-Dec-17 22:00N 47°24' W 063°00'1312.7 280 / 201013.2 -6.8-11.1
2017-Dec-17 21:00N 47°12' W 062°54'8 8.2 280 / 211012.7 -6.8-10.7
2017-Dec-17 20:00N 47°12' W 062°42'1616.3 280 / 271011.2 -6.4-10.7
2017-Dec-17 19:00N 47°12' W 062°18'1616.3 280 / 211010.1 -5.9-10.2
2017-Dec-17 18:00N 47°12' W 061°54'5317.8 290 / 211008.9 -5.6-9.0
2017-Dec-17 15:00N 47°18' W 060°36'4715.7 280 / 311005.1 -3.3-6.4
2017-Dec-17 12:00N 47°42' W 059°36'4515.0 280 / 301001.1 -4.2-8.4
2017-Dec-17 09:00N 47°36' W 058°30'1616.2 270 / 24997.8 -5.7-9.6
2017-Dec-17 08:00N 47°36' W 058°06'1717.3 270 / 33996.3 -5.0-10.1
2017-Dec-17 07:00N 47°30' W 057°42'1717.3 270 / 34995.2 -4.0-9.9
2017-Dec-17 06:00N 47°36' W 057°18'1717.3 270 / 28994.9 -4.3-10.7
2017-Dec-17 05:00N 47°30' W 056°54'3015.2 270 / 28994.5 -4.4-11.9
2017-Dec-17 03:00N 47°12' W 056°18'2019.8 270 / 19993.5 -2.2-7.7
2017-Dec-17 02:00N 46°54' W 056°06'2914.7 280 / 23993.0 -1.5-6.5
2017-Dec-17 00:00N 46°48' W 055°24'8016.1 280 / 27989.9 -2.7-4.4
2017-Dec-16 19:00N 46°30' W 053°30'5317.8 050 / 46971.8 1.6 1.3
2017-Dec-16 16:00N 47°12' W 052°42'1818.5 040 / 20997.0 -0.0-0.4
2017-Dec-16 15:00N 47°30' W 052°36'314.8 050 / 141002.2 0.9-1.6
2017-Dec-16 14:46N 47°33' W 052°38'3 8.6
2017-Dec-16 14:25N 47°34' W 052°42'2 5.7
2017-Dec-16 14:00N 47°36' W 052°42'3 6.5 060 / 21004.3 0.4-4.0
2017-Dec-16 13:36N 47°33' W 052°43'3 4.2
2017-Dec-16 13:00N 47°36' W 052°42'0 0.0 1006.9 -0.5-4.8
2017-Dec-16 12:00N 47°36' W 052°42'3 2.6 030 / 11009.5 -1.1-5.3
2017-Dec-16 11:00N 47°33' W 052°43'3158.4
2017-Dec-16 11:00N 47°36' W 052°42'3 5.3 230 / 41011.2 -1.6-5.7
2017-Dec-16 10:30N 47°33' W 052°43'0 0.0
2017-Dec-16 10:00N 47°33' W 052°43'3155.7
2017-Dec-16 10:00N 47°36' W 052°42'3 5.3 240 / 51010.8 -1.0-6.2
2017-Dec-16 09:30N 47°33' W 052°43'3 4.9
2017-Dec-16 09:00N 47°36' W 052°42'330.3 210 / 21009.6 -0.9-6.1
2017-Dec-16 08:54N 47°33' W 052°43'0 0.0
2017-Dec-16 08:30N 47°33' W 052°43'0 0.0
2017-Dec-16 07:54N 47°33' W 052°43'0 0.0
2017-Dec-16 07:24N 47°33' W 052°43'3 6.1
2017-Dec-16 07:00N 47°36' W 052°42'330.4 230 / 61011.1 0.1-6.5
2017-Dec-16 06:54N 47°33' W 052°43'0 0.0
2017-Dec-16 06:24N 47°33' W 052°43'0 0.0
2017-Dec-16 06:00N 47°33' W 052°43'3155.7
2017-Dec-16 06:00N 47°36' W 052°42'3 5.3 240 / 91011.5 -0.1-7.1
2017-Dec-16 05:30N 47°33' W 052°43'0 0.0
2017-Dec-16 05:00N 47°33' W 052°43'3155.7
2017-Dec-16 05:00N 47°36' W 052°42'3 4.8 240 / 111011.2 0.1-7.2
2017-Dec-16 04:27N 47°33' W 052°43'0 0.0
2017-Dec-16 04:00N 47°33' W 052°43'3158.4
2017-Dec-16 04:00N 47°36' W 052°42'3 5.3 240 / 121010.7 0.3-7.3
2017-Dec-16 03:30N 47°33' W 052°43'3 4.9
2017-Dec-16 03:00N 47°36' W 052°42'374.7 240 / 131010.6 0.3-7.3
2017-Dec-16 02:57N 47°33' W 052°43'0 0.0
2017-Dec-16 02:24N 47°33' W 052°43'0 0.0
2017-Dec-16 02:00N 47°33' W 052°43'3155.7
2017-Dec-16 02:00N 47°36' W 052°42'3 5.3 240 / 141010.4 0.4-7.0
2017-Dec-16 01:30N 47°33' W 052°43'0 0.0
2017-Dec-16 01:00N 47°33' W 052°43'0 0.0
2017-Dec-16 00:24N 47°33' W 052°43'3 6.1
2017-Dec-16 00:00N 47°36' W 052°42'277.4 220 / 131008.8 1.1-7.0
2017-Dec-15 23:58N 47°34' W 052°41'1013.6
2017-Dec-15 23:15N 47°25' W 052°38'727.9
2017-Dec-15 23:00N 47°18' W 052°42'1818.5 220 / 211009.1 2.8-5.2
2017-Dec-15 22:00N 47°00' W 052°48'3919.4 230 / 211009.4 2.2-4.0
2017-Dec-15 20:00N 46°30' W 053°24'1716.5 260 / 331009.9 2.6-5.2
2017-Dec-15 19:00N 46°30' W 053°48'5819.4 260 / 341009.0 2.4-5.2
2017-Dec-15 16:00N 46°24' W 055°12'1817.6 250 / 361007.5 1.4-5.6
2017-Dec-15 15:00N 46°18' W 055°36'2120.7 250 / 371007.4 1.0-5.8
2017-Dec-15 14:00N 46°18' W 056°06'1817.6 250 / 381007.0 -0.2-6.9
2017-Dec-15 13:00N 46°24' W 056°30'3818.8 240 / 341005.4 -1.0-6.9
2017-Dec-15 11:00N 46°42' W 057°18'3718.7 230 / 321002.0 -2.1-8.2
2017-Dec-15 09:00N 47°00' W 058°06'2020.3 240 / 28999.9 -3.6-9.0
2017-Dec-15 08:00N 47°12' W 058°30'1717.4 250 / 27998.7 -3.7-9.0
2017-Dec-15 07:00N 47°18' W 058°54'2423.6 250 / 33997.7 -4.4-9.2
2017-Dec-15 06:00N 47°30' W 059°24'1717.1 250 / 27996.9 -4.9-9.7
2017-Dec-15 05:00N 47°42' W 059°42'1414.5 250 / 28995.2 -5.4-10.1
2017-Dec-15 04:00N 47°54' W 059°54'2424.1 240 / 29994.1 -5.5-9.2
2017-Dec-15 03:00N 48°12' W 060°18'1414.4 230 / 25993.4 -5.1-9.1
2017-Dec-15 02:00N 48°24' W 060°30'3416.9 230 / 23992.7 -5.2-8.4
2017-Dec-15 00:00N 48°48' W 061°06'5518.3 230 / 26991.7 -6.1-10.1
2017-Dec-14 21:00N 49°30' W 062°00'26 8.7 220 / 20989.7 -9.3-12.0
2017-Dec-14 18:00N 49°42' W 062°36'1313.1 220 / 21987.6 -9.5-14.3
2017-Dec-14 17:00N 49°48' W 062°54'28 9.2 220 / 21986.3 -9.3-14.8
2017-Dec-14 14:00N 49°54' W 063°36'8 7.7 240 / 31981.6 -8.4-13.5
2017-Dec-14 13:00N 49°54' W 063°48'2010.1 220 / 31 -8.6-12.2
2017-Dec-14 11:00N 50°00' W 064°18'10 9.8 240 / 40975.7 -6.9-10.7
2017-Dec-14 10:00N 49°54' W 064°30'3210.5 250 / 39975.8 -6.6-9.9
2017-Dec-14 07:00N 49°48' W 065°18'3919.7 240 / 42973.5 -4.7-9.4
2017-Dec-14 05:00N 49°30' W 066°12'3718.6 240 / 37971.9 -5.0-9.1
2017-Dec-14 03:00N 49°18' W 067°06'3416.8 250 / 28972.4 -6.0-8.8
2017-Dec-14 01:00N 49°06' W 067°54'2323.1 270 / 17974.4 -5.7-7.2
2017-Dec-14 00:00N 48°54' W 068°24'3014.9 300 / 21975.4 -5.7-7.0
2017-Dec-13 22:00N 48°36' W 069°00'1716.9 300 / 19977.6 -4.9-6.4
2017-Dec-13 21:00N 48°24' W 069°18'3417.0 270 / 17978.2 -5.7-7.5
2017-Dec-13 19:00N 47°54' W 069°42'2412.1 290 / 17978.7 -4.1-7.3
2017-Dec-13 17:00N 47°36' W 070°06'2412.1 210 / 23981.8 -4.4-5.7
2017-Dec-13 15:00N 47°18' W 070°30'2221.8 210 / 22984.3 -4.8-6.2
2017-Dec-13 14:00N 47°00' W 070°48'4514.9 220 / 17986.4 -6.6-8.7
2017-Dec-13 11:00N 46°42' W 071°48'2020.4 260 / 10989.6 -8.0-9.9
2017-Dec-13 10:00N 46°30' W 072°12'4113.6 280 / 12990.8 -8.8-10.9
2017-Dec-13 07:00N 46°06' W 073°00'2512.3 280 / 9993.8 -8.5-10.6
2017-Dec-13 05:00N 45°48' W 073°24'18 6.2 260 / 10995.5 -7.2-8.9
2017-Dec-13 02:00N 45°30' W 073°30'0 0.0 320 / 5997.0 -6.9-9.2
2017-Dec-13 01:00N 45°30' W 073°30'0 0.0 320 / 3996.9 -7.4-9.4
2017-Dec-12 23:00N 45°30' W 073°30'0 0.0 010 / 12996.9 -7.5-9.3
2017-Dec-12 21:00N 45°30' W 073°30'0 0.0 020 / 14997.5 -7.6-9.1
2017-Dec-12 20:00N 45°30' W 073°30'0 0.0 020 / 16997.8 -7.7-9.2
2017-Dec-12 19:00N 45°30' W 073°30'0 0.0 020 / 15998.3 -7.9-9.4
2017-Dec-12 17:00N 45°30' W 073°30'0 0.0 020 / 151000.9 -9.0-10.6
2017-Dec-12 16:00N 45°30' W 073°30'0 0.0 020 / 151002.6 -9.4-11.0
2017-Dec-12 13:00N 45°30' W 073°30'0 0.0 020 / 141005.6 -11.0-12.9
2017-Dec-12 12:00N 45°30' W 073°30'0 0.0 020 / 131007.0 -11.3-13.2
2017-Dec-12 11:00N 45°30' W 073°30'0 0.0 020 / 111008.1 -11.4-13.5
2017-Dec-12 10:00N 45°30' W 073°30'0 0.0 020 / 101009.0 -11.2-13.7
2017-Dec-12 08:00N 45°30' W 073°30'0 0.0 030 / 81012.5 -10.5-15.6
2017-Dec-12 07:00N 45°30' W 073°30'0 0.0 020 / 81013.5 -10.3-15.9
2017-Dec-12 05:00N 45°30' W 073°30'0 0.0 050 / 51015.5 -9.0-15.3
2017-Dec-12 04:00N 45°30' W 073°30'0 0.0 110 / 21016.1 -9.8-15.1
2017-Dec-12 03:00N 45°30' W 073°30'0 0.0 100 / 31016.3 -10.0-15.1
2017-Dec-12 02:00N 45°30' W 073°30'0 0.0 110 / 31016.6 -10.4-15.0
2017-Dec-12 00:00N 45°30' W 073°30'6 3.0 070 / 31017.4 -7.5-14.4
2017-Dec-11 22:00N 45°36' W 073°30'20 9.9 090 / 51017.9 -9.5-15.3
2017-Dec-11 20:00N 45°54' W 073°18'7 7.3 190 / 41017.8 -10.0-19.1
2017-Dec-11 19:00N 46°00' W 073°12'1413.9 230 / 61017.5 -10.4-20.8
2017-Dec-11 18:00N 46°06' W 072°54'1514.6 200 / 41017.5 -11.5-19.8
2017-Dec-11 17:00N 46°18' W 072°42'1010.2 250 / 31017.6 -11.8-20.0
2017-Dec-11 16:00N 46°24' W 072°30'1413.8 270 / 61017.6 -12.7-19.8
2017-Dec-11 15:00N 46°30' W 072°12'2110.7 270 / 91016.6 -13.5-19.4
2017-Dec-11 13:00N 46°36' W 071°42'1413.7 220 / 71014.9 -12.7-15.6
2017-Dec-11 12:00N 46°42' W 071°24'2713.7 250 / 91014.1 -11.0-15.4
2017-Dec-11 10:00N 46°54' W 070°48'2019.8 060 / 121013.0 -9.3-11.0
2017-Dec-11 09:00N 47°12' W 070°36'1414.5 050 / 111012.9 -10.2-12.7
2017-Dec-11 08:00N 47°24' W 070°24'1717.1 320 / 181012.1 -11.7-18.1
2017-Dec-11 07:00N 47°36' W 070°06'3115.7 310 / 171011.9 -12.3-19.5
2017-Dec-11 05:00N 48°00' W 069°36'2019.7 280 / 241010.3 -12.4-18.4
2017-Dec-11 04:00N 48°18' W 069°24'1716.9 280 / 231008.3 -12.0-17.8
2017-Dec-11 03:00N 48°30' W 069°06'2019.9 260 / 171007.2 -9.1-16.0
2017-Dec-11 02:00N 48°42' W 068°42'1716.9 280 / 201004.9 -7.7-14.5
2017-Dec-11 01:00N 48°48' W 068°18'2019.8 270 / 201003.9 -6.7-12.7
2017-Dec-11 00:00N 49°00' W 067°54'2323.0 280 / 161002.5 -6.9-10.2
2017-Dec-10 23:00N 49°12' W 067°24'3617.9 270 / 201001.0 -5.6-8.3
2017-Dec-10 21:00N 49°18' W 066°30'1716.7 230 / 22999.0 -4.5-7.2
2017-Dec-10 20:00N 49°24' W 066°06'2019.5 250 / 26998.0 -4.4-9.1
2017-Dec-10 19:00N 49°24' W 065°36'2713.7 270 / 30996.2 -4.4-8.7
2017-Dec-10 17:00N 49°24' W 064°54'1211.7 290 / 26995.1 -3.8-5.4
2017-Dec-10 16:00N 49°24' W 064°36'8 7.8 300 / 28995.0 -3.3-4.2
2017-Dec-10 15:00N 49°24' W 064°24'1211.7 300 / 25995.1 -2.3-2.8
2017-Dec-10 14:00N 49°24' W 064°06'10 9.9 320 / 22995.1 -1.5-1.9
2017-Dec-10 13:00N 49°18' W 063°54'20 9.9 330 / 23995.6 -1.3-1.6
2017-Dec-10 11:00N 49°06' W 063°30'10 9.9 010 / 20998.5 -1.4-1.6
2017-Dec-10 10:00N 49°00' W 063°18'2110.3 020 / 211000.2 -1.4-1.5
2017-Dec-10 08:00N 48°54' W 062°48'10 9.9 040 / 191001.8 -1.1-1.2
2017-Dec-10 07:00N 48°48' W 062°36'10 9.9 050 / 181005.0 -0.5-0.6
2017-Dec-10 06:00N 48°42' W 062°24'10 9.9 060 / 171007.2 -0.6-0.7
2017-Dec-10 05:00N 48°36' W 062°12'1313.3 060 / 141009.4 -0.7-0.8
2017-Dec-10 04:00N 48°30' W 061°54'1313.4 080 / 81011.1 -0.6-0.7
2017-Dec-10 03:00N 48°24' W 061°36'2020.0 120 / 121011.9 0.5-0.6
2017-Dec-10 02:00N 48°12' W 061°12'1717.1 130 / 161014.4 2.7-0.7
2017-Dec-10 01:00N 48°06' W 060°48'2020.0 140 / 161015.8 2.6-1.6
2017-Dec-10 00:00N 47°54' W 060°24'6120.2 130 / 161017.1 2.7-2.0
2017-Dec-09 21:00N 47°24' W 059°06'2121.2 120 / 121019.4 2.4-2.9
2017-Dec-09 20:00N 47°18' W 058°36'1717.4 120 / 81019.5 2.3-3.4
2017-Dec-09 19:00N 47°12' W 058°12'2121.3 090 / 31019.0 2.3-3.1
2017-Dec-09 18:00N 47°06' W 057°42'2020.3 360 / 31018.9 2.7-2.5
2017-Dec-09 17:00N 46°54' W 057°18'3919.4 290 / 51018.3 3.2-4.0
2017-Dec-09 15:00N 46°42' W 056°24'2120.6 220 / 41018.9 4.0 0.1
2017-Dec-09 14:00N 46°42' W 055°54'1817.5 190 / 111019.2 3.8 1.8
2017-Dec-09 13:00N 46°36' W 055°30'1616.5 180 / 101019.3 3.0 1.3
2017-Dec-09 12:00N 46°36' W 055°06'2120.6 190 / 81019.1 3.2 0.6
2017-Dec-09 11:00N 46°36' W 054°36'1616.5 200 / 101017.7 3.8 1.3
2017-Dec-09 10:00N 46°36' W 054°12'2121.5 190 / 121018.0 5.0 1.3
2017-Dec-09 09:00N 46°30' W 053°42'3517.5 170 / 91018.9 4.5 0.7
2017-Dec-09 07:00N 46°42' W 052°54'1818.5 190 / 101018.9 2.9-0.8
2017-Dec-09 06:00N 47°00' W 052°48'1919.4 200 / 111018.5 2.3-1.8
2017-Dec-09 05:01N 47°18' W 052°40'318.7
2017-Dec-09 04:51N 47°21' W 052°39'618.5
2017-Dec-09 04:30N 47°28' W 052°37'713.6
2017-Dec-09 03:58N 47°34' W 052°41'1 1.7
2017-Dec-09 03:26N 47°33' W 052°43'3 5.8
2017-Dec-09 03:00N 47°36' W 052°42'341.2 220 / 61017.0 1.3-2.5
2017-Dec-09 02:56N 47°33' W 052°43'0 0.0
2017-Dec-09 02:26N 47°33' W 052°43'3 5.8
2017-Dec-09 02:00N 47°36' W 052°42'341.4 220 / 71016.0 1.3-3.1
2017-Dec-09 01:56N 47°33' W 052°43'0 0.0
2017-Dec-09 01:26N 47°33' W 052°43'3 5.8
2017-Dec-09 01:00N 47°36' W 052°42'341.4 220 / 61015.2 1.2-2.2
2017-Dec-09 00:56N 47°33' W 052°43'0 0.0
2017-Dec-09 00:26N 47°33' W 052°43'3 5.8
2017-Dec-09 00:00N 47°36' W 052°42'341.2 230 / 81014.6 1.1-3.2
2017-Dec-08 23:56N 47°33' W 052°43'0 0.0
2017-Dec-08 23:26N 47°33' W 052°43'3 5.8
2017-Dec-08 23:00N 47°36' W 052°42'341.4 230 / 121013.5 1.1-2.4
2017-Dec-08 22:56N 47°33' W 052°43'0 0.0
2017-Dec-08 22:26N 47°33' W 052°43'3 5.8
2017-Dec-08 22:00N 47°36' W 052°42'3213.7 230 / 91012.9 1.3-2.4
2017-Dec-08 21:59N 47°33' W 052°43'0 0.0
2017-Dec-08 21:26N 47°33' W 052°43'3 5.8
2017-Dec-08 21:00N 47°36' W 052°42'341.2 220 / 81011.8 1.2-1.2
2017-Dec-08 20:56N 47°33' W 052°43'0 0.0
2017-Dec-08 20:26N 47°33' W 052°43'0 0.0
2017-Dec-08 19:50N 47°33' W 052°43'3 3.0
2017-Dec-08 19:00N 47°36' W 052°42'0 0.0 230 / 81010.6 1.4 0.1
2017-Dec-08 18:00N 47°36' W 052°42'3 0.8 220 / 91010.0 1.2 0.2
2017-Dec-08 14:48N 47°33' W 052°43'0 0.7
2017-Dec-08 14:25N 47°34' W 052°42'511.2
2017-Dec-08 14:00N 47°36' W 052°36'3718.5 190 / 111010.4 2.6-0.6
2017-Dec-08 12:00N 47°00' W 052°48'1312.7 230 / 121010.9 1.6-1.9
2017-Dec-08 11:00N 46°48' W 052°54'   240 / 121010.8 2.2-1.7

Dump ship's entire track history